createdAt,value
2018-06-17T04:00:54.208Z,78.84
2018-06-17T04:01:53.576Z,79.03
2018-06-17T04:03:46.260Z,78.84
2018-06-17T04:04:46.164Z,78.59
2018-06-17T04:06:38.880Z,78.02
2018-06-17T04:07:38.738Z,78.11
2018-06-17T04:09:31.425Z,77.44
2018-06-17T04:10:31.330Z,78.11
2018-06-17T04:12:24.028Z,77.25
2018-06-17T04:13:23.901Z,78.02
2018-06-17T04:15:16.607Z,78.30
2018-06-17T04:16:16.492Z,77.53
2018-06-17T04:18:09.213Z,76.77
2018-06-17T04:19:09.076Z,77.25
2018-06-17T04:21:01.873Z,76.23
2018-06-17T04:22:01.660Z,76.42
2018-06-17T04:23:54.365Z,75.71
2018-06-17T04:24:54.249Z,76.67
2018-06-17T04:26:46.914Z,76.39
2018-06-17T04:27:46.815Z,76.62
2018-06-17T04:29:39.515Z,76.39
2018-06-17T04:30:39.390Z,76.14
2018-06-17T04:32:32.066Z,75.56
2018-06-17T04:33:31.969Z,75.46
2018-06-17T04:35:24.674Z,75.65
2018-06-17T04:36:24.547Z,75.95
2018-06-17T04:38:17.227Z,76.32
2018-06-17T04:39:17.119Z,75.75
2018-06-17T04:41:09.825Z,76.67
2018-06-17T04:42:09.703Z,76.42
2018-06-17T04:44:02.375Z,76.39
2018-06-17T04:45:02.279Z,76.86
2018-06-17T04:46:54.988Z,77.15
2018-06-17T04:47:54.861Z,77.44
2018-06-17T04:49:47.544Z,78.49
2018-06-17T04:50:47.442Z,77.92
2018-06-17T04:52:40.143Z,78.11
2018-06-17T04:53:40.014Z,77.82
2018-06-17T04:55:32.692Z,78.02
2018-06-17T04:56:32.594Z,78.49
2018-06-17T04:58:25.289Z,79.13
2018-06-17T04:59:25.176Z,79.60
2018-06-17T05:01:17.847Z,79.41
2018-06-17T05:02:17.748Z,79.60
2018-06-17T05:04:10.440Z,79.51
2018-06-17T05:05:10.316Z,78.78
2018-06-17T05:07:02.999Z,78.69
2018-06-17T05:08:02.895Z,78.30
2018-06-17T05:09:55.603Z,78.07
2018-06-17T05:10:55.471Z,78.40
2018-06-17T05:12:48.149Z,78.27
2018-06-17T05:13:48.047Z,78.20
2018-06-17T05:15:40.755Z,78.40
2018-06-17T05:16:40.633Z,78.30
2018-06-17T05:18:33.316Z,77.73
2018-06-17T05:19:33.209Z,78.30
2018-06-17T05:21:25.918Z,77.44
2018-06-17T05:22:25.795Z,78.02
2018-06-17T05:24:18.974Z,77.63
2018-06-17T05:25:18.875Z,77.44
2018-06-17T05:27:11.580Z,77.44
2018-06-17T05:28:11.470Z,77.34
2018-06-17T05:30:04.133Z,76.77
2018-06-17T05:31:04.029Z,77.06
2018-06-17T05:32:56.750Z,76.90
2018-06-17T05:33:56.635Z,76.90
2018-06-17T05:35:49.307Z,76.62
2018-06-17T05:36:49.210Z,76.42
2018-06-17T05:38:41.915Z,76.04
2018-06-17T05:39:41.779Z,76.42
2018-06-17T05:41:34.465Z,76.52
2018-06-17T05:42:34.366Z,76.42
2018-06-17T05:44:27.077Z,76.04
2018-06-17T05:45:26.953Z,76.71
2018-06-17T05:47:19.632Z,75.75
2018-06-17T05:48:19.525Z,76.14
2018-06-17T05:50:12.289Z,75.75
2018-06-17T05:51:12.166Z,75.37
2018-06-17T05:53:04.855Z,75.98
2018-06-17T05:54:04.748Z,75.98
2018-06-17T05:55:57.442Z,75.31
2018-06-17T05:56:57.326Z,75.40
2018-06-17T05:58:50.011Z,75.21
2018-06-17T05:59:49.899Z,74.64
2018-06-17T06:01:42.612Z,75.12
2018-06-17T06:02:42.477Z,74.83
2018-06-17T06:04:35.175Z,74.64
2018-06-17T06:05:35.065Z,74.29
2018-06-17T06:07:27.805Z,73.04
2018-06-17T06:08:27.656Z,73.52
2018-06-17T06:10:20.367Z,73.14
2018-06-17T06:11:20.231Z,72.02
2018-06-17T06:13:13.938Z,70.65
2018-06-17T06:14:13.816Z,67.61
2018-06-17T06:16:06.657Z,58.19
2018-06-17T06:17:06.404Z,52.80
2018-06-17T06:18:59.116Z,47.60
2018-06-17T06:19:58.996Z,45.51
2018-06-17T06:21:51.706Z,44.24
2018-06-17T06:22:51.617Z,42.76
2018-06-17T06:24:44.333Z,39.70
2018-06-17T06:25:44.215Z,38.36
2018-06-17T06:27:36.942Z,37.58
2018-06-17T06:28:36.826Z,39.10
2018-06-17T06:30:29.529Z,40.44
2018-06-17T06:31:29.438Z,39.12
2018-06-17T06:33:22.163Z,37.31
2018-06-17T06:34:22.044Z,36.27
2018-06-17T06:36:14.753Z,34.92
2018-06-17T06:37:14.664Z,33.59
2018-06-17T06:39:07.397Z,32.26
2018-06-17T06:40:07.281Z,32.81
2018-06-17T06:41:59.983Z,34.55
2018-06-17T06:42:59.949Z,36.00
2018-06-17T06:44:52.620Z,35.61
2018-06-17T06:45:52.513Z,35.96
2018-06-17T06:47:45.218Z,35.97
2018-06-17T06:48:45.128Z,35.71
2018-06-17T06:50:37.872Z,34.55
2018-06-17T06:51:37.764Z,34.29
2018-06-17T06:53:30.497Z,32.39
2018-06-17T06:54:30.382Z,31.60
2018-06-17T06:56:23.115Z,32.29
2018-06-17T06:57:23.053Z,32.28
2018-06-17T06:59:15.721Z,31.22
2018-06-17T07:00:15.627Z,31.22
2018-06-17T07:02:08.372Z,31.33
2018-06-17T07:03:08.268Z,29.79
2018-06-17T07:05:00.976Z,29.59
2018-06-17T07:06:00.889Z,29.70
2018-06-17T07:07:53.758Z,29.02
2018-06-17T07:08:53.506Z,29.31
2018-06-17T07:10:46.275Z,31.96
2018-06-17T07:11:46.189Z,32.06
2018-06-17T07:13:38.916Z,31.20
2018-06-17T07:14:38.807Z,31.95
2018-06-17T07:16:31.512Z,35.55
2018-06-17T07:17:31.429Z,36.69
2018-06-17T07:19:24.158Z,36.54
2018-06-17T07:20:24.058Z,36.07
2018-06-17T07:22:16.771Z,39.28
2018-06-17T07:23:16.693Z,37.10
2018-06-17T07:25:09.496Z,34.94
2018-06-17T07:26:09.328Z,33.41
2018-06-17T07:28:02.032Z,34.63
2018-06-17T07:29:01.950Z,34.56
2018-06-17T07:30:54.673Z,35.96
2018-06-17T07:31:54.569Z,39.45
2018-06-17T07:33:47.281Z,39.76
2018-06-17T07:34:47.187Z,38.15
2018-06-17T07:36:39.938Z,35.89
2018-06-17T07:37:39.823Z,34.90
2018-06-17T07:39:32.596Z,36.24
2018-06-17T07:40:32.491Z,36.36
2018-06-17T07:42:25.192Z,36.16
2018-06-17T07:43:25.077Z,36.04
2018-06-17T07:45:17.784Z,37.78
2018-06-17T07:46:17.689Z,37.76
2018-06-17T07:48:11.427Z,37.84
2018-06-17T07:49:11.306Z,38.23
2018-06-17T07:51:04.012Z,41.06
2018-06-17T07:52:03.917Z,42.59
2018-06-17T07:53:56.639Z,40.13
2018-06-17T07:54:56.525Z,39.49
2018-06-17T07:56:49.264Z,37.78
2018-06-17T07:57:49.179Z,37.57
2018-06-17T07:59:41.904Z,37.60
2018-06-17T08:00:41.806Z,35.70
2018-06-17T08:02:34.514Z,34.17
2018-06-17T08:03:34.500Z,34.24
2018-06-17T08:05:27.137Z,35.80
2018-06-17T08:06:27.023Z,35.29
2018-06-17T08:08:19.963Z,36.60
2018-06-17T08:09:19.760Z,38.32
2018-06-17T08:11:13.124Z,37.86
2018-06-17T08:12:12.375Z,38.32
2018-06-17T08:14:05.072Z,39.55
2018-06-17T08:15:04.984Z,40.89
2018-06-17T08:16:57.725Z,41.49
2018-06-17T08:17:57.595Z,41.76
2018-06-17T08:19:50.309Z,42.90
2018-06-17T08:20:50.214Z,41.56
2018-06-17T08:22:42.939Z,41.95
2018-06-17T08:23:42.830Z,41.20
2018-06-17T08:25:35.534Z,38.99
2018-06-17T08:26:35.442Z,40.15
2018-06-17T08:28:28.180Z,40.69
2018-06-17T08:29:28.057Z,43.13
2018-06-17T08:31:20.765Z,46.27
2018-06-17T08:32:20.669Z,45.14
2018-06-17T08:34:13.394Z,47.19
2018-06-17T08:35:13.285Z,47.99
2018-06-17T08:37:05.988Z,47.67
2018-06-17T08:38:05.885Z,48.23
2018-06-17T08:39:58.609Z,50.13
2018-06-17T08:40:58.494Z,49.94
2018-06-17T08:42:51.192Z,51.07
2018-06-17T08:43:51.101Z,51.65
2018-06-17T08:45:43.819Z,52.61
2018-06-17T08:46:43.716Z,51.94
2018-06-17T08:48:36.393Z,52.35
2018-06-17T08:49:36.293Z,51.77
2018-06-17T08:51:29.025Z,51.22
2018-06-17T08:52:28.893Z,50.96
2018-06-17T08:54:21.600Z,50.57
2018-06-17T08:55:21.493Z,50.35
2018-06-17T08:57:14.207Z,50.93
2018-06-17T08:58:14.097Z,50.47
2018-06-17T09:00:06.843Z,49.24
2018-06-17T09:01:06.686Z,49.73
2018-06-17T09:02:59.436Z,49.80
2018-06-17T09:03:59.306Z,50.57
2018-06-17T09:05:52.036Z,50.79
2018-06-17T09:06:51.898Z,50.31
2018-06-17T09:08:44.615Z,49.63
2018-06-17T09:09:44.487Z,50.18
2018-06-17T09:11:37.181Z,48.37
2018-06-17T09:12:37.085Z,48.83
2018-06-17T09:14:29.802Z,49.32
2018-06-17T09:15:29.695Z,48.83
2018-06-17T09:17:22.528Z,48.08
2018-06-17T09:18:22.285Z,48.16
2018-06-17T09:20:15.012Z,48.93
2018-06-17T09:21:14.889Z,49.87
2018-06-17T09:23:07.589Z,50.45
2018-06-17T09:24:07.485Z,49.39
2018-06-17T09:26:00.360Z,49.41
2018-06-17T09:27:00.078Z,49.51
2018-06-17T09:28:52.769Z,48.37
2018-06-17T09:29:52.672Z,48.35
2018-06-17T09:31:45.486Z,50.45
2018-06-17T09:32:45.266Z,51.80
2018-06-17T09:34:38.463Z,50.28
2018-06-17T09:35:38.366Z,49.48
2018-06-17T09:37:31.072Z,49.96
2018-06-17T09:38:30.969Z,50.64
2018-06-17T09:40:23.656Z,51.75
2018-06-17T09:41:23.552Z,51.39
2018-06-17T09:43:16.766Z,53.39
2018-06-17T09:44:16.675Z,54.06
2018-06-17T09:46:09.828Z,53.22
2018-06-17T09:47:09.728Z,51.99
2018-06-17T09:49:02.440Z,51.05
2018-06-17T09:50:02.318Z,50.96
2018-06-17T09:51:55.018Z,50.40
2018-06-17T09:52:54.923Z,49.44
2018-06-17T09:54:47.631Z,47.81
2018-06-17T09:55:47.523Z,48.37
2018-06-17T09:57:40.266Z,49.32
2018-06-17T09:58:40.170Z,48.28
2018-06-17T10:00:32.890Z,48.47
2018-06-17T10:01:32.827Z,48.59
2018-06-17T10:03:25.454Z,48.08
2018-06-17T10:04:25.363Z,48.06
2018-06-17T10:06:18.081Z,49.10
2018-06-17T10:07:17.963Z,50.52
2018-06-17T10:09:10.662Z,50.90
2018-06-17T10:10:10.570Z,50.93
2018-06-17T10:12:03.290Z,50.23
2018-06-17T10:13:03.169Z,51.03
2018-06-17T10:14:55.855Z,50.81
2018-06-17T10:15:55.757Z,51.58
2018-06-17T10:17:48.485Z,51.58
2018-06-17T10:18:48.384Z,51.48
2018-06-17T10:20:41.069Z,52.45
2018-06-17T10:21:40.967Z,51.75
2018-06-17T10:23:33.679Z,52.81
2018-06-17T10:24:33.555Z,52.16
2018-06-17T10:26:26.253Z,52.83
2018-06-17T10:27:26.152Z,52.57
2018-06-17T10:29:18.912Z,51.05
2018-06-17T10:30:18.758Z,51.77
2018-06-17T10:32:11.445Z,52.19
2018-06-17T10:33:11.352Z,50.35
2018-06-17T10:35:04.062Z,49.10
2018-06-17T10:36:03.948Z,50.52
2018-06-17T10:37:56.642Z,50.04
2018-06-17T10:38:56.548Z,49.29
2018-06-17T10:40:49.278Z,50.45
2018-06-17T10:41:49.151Z,50.54
2018-06-17T10:43:41.841Z,49.29
2018-06-17T10:44:41.741Z,50.23
2018-06-17T10:46:34.474Z,49.70
2018-06-17T10:47:34.381Z,50.35
2018-06-17T10:49:27.084Z,51.00
2018-06-17T10:50:26.965Z,51.12
2018-06-17T10:52:19.676Z,50.26
2018-06-17T10:53:19.553Z,50.06
2018-06-17T10:55:12.243Z,50.90
2018-06-17T10:56:12.193Z,51.39
2018-06-17T10:58:04.867Z,52.13
2018-06-17T10:59:04.769Z,51.77
2018-06-17T11:00:57.453Z,51.26
2018-06-17T11:01:57.358Z,51.41
2018-06-17T11:03:50.072Z,49.80
2018-06-17T11:04:49.956Z,49.41
2018-06-17T11:06:43.153Z,48.35
2018-06-17T11:07:43.053Z,49.15
2018-06-17T11:09:35.768Z,48.21
2018-06-17T11:10:35.641Z,47.43
2018-06-17T11:12:28.346Z,46.66
2018-06-17T11:13:28.247Z,46.75
2018-06-17T11:15:20.980Z,47.53
2018-06-17T11:16:20.850Z,48.01
2018-06-17T11:18:13.558Z,49.58
2018-06-17T11:19:13.450Z,50.35
2018-06-17T11:21:06.157Z,51.77
2018-06-17T11:22:06.044Z,51.29
2018-06-17T11:23:58.827Z,51.10
2018-06-17T11:24:58.725Z,51.94
2018-06-17T11:26:51.446Z,51.80
2018-06-17T11:27:51.319Z,50.84
2018-06-17T11:29:44.013Z,50.09
2018-06-17T11:30:43.913Z,49.70
2018-06-17T11:32:36.640Z,48.79
2018-06-17T11:33:36.515Z,48.69
2018-06-17T11:35:29.236Z,49.32
2018-06-17T11:36:29.113Z,50.74
2018-06-17T11:38:21.824Z,50.90
2018-06-17T11:39:21.732Z,51.68
2018-06-17T11:41:14.441Z,51.39
2018-06-17T11:42:14.315Z,51.41
2018-06-17T11:44:07.058Z,49.96
2018-06-17T11:45:06.938Z,49.77
2018-06-17T11:47:00.457Z,50.54
2018-06-17T11:48:00.369Z,50.42
2018-06-17T11:49:53.593Z,50.40
2018-06-17T11:50:53.536Z,51.07
2018-06-17T11:52:46.202Z,50.21
2018-06-17T11:53:46.104Z,51.75
2018-06-17T11:55:38.829Z,51.26
2018-06-17T11:56:38.814Z,51.17
2018-06-17T11:58:31.475Z,49.82
2018-06-17T11:59:31.379Z,49.37
2018-06-17T12:01:24.192Z,49.65
2018-06-17T12:02:23.957Z,49.17
2018-06-17T12:04:16.653Z,47.87
2018-06-17T12:05:16.532Z,47.22
2018-06-17T12:07:10.377Z,45.26
2018-06-17T12:08:09.636Z,46.71
2018-06-17T12:10:02.441Z,46.54
2018-06-17T12:11:02.301Z,46.03
2018-06-17T12:12:55.103Z,46.06
2018-06-17T12:13:54.881Z,46.27
2018-06-17T12:15:47.711Z,44.75
2018-06-17T12:16:47.532Z,44.07
2018-06-17T12:18:40.240Z,45.07
2018-06-17T12:19:40.140Z,44.76
2018-06-17T12:21:32.874Z,46.11
2018-06-17T12:22:32.729Z,47.70
2018-06-17T12:24:25.945Z,47.09
2018-06-17T12:25:25.900Z,46.81
2018-06-17T12:27:18.592Z,45.96
2018-06-17T12:28:18.450Z,44.63
2018-06-17T12:30:11.238Z,42.21
2018-06-17T12:31:11.076Z,43.26
2018-06-17T12:33:03.809Z,43.64
2018-06-17T12:34:03.772Z,43.54
2018-06-17T12:35:56.541Z,43.18
2018-06-17T12:36:56.286Z,43.08
2018-06-17T12:38:49.044Z,43.47
2018-06-17T12:39:48.938Z,43.47
2018-06-17T12:41:41.664Z,42.21
2018-06-17T12:42:41.544Z,42.60
2018-06-17T12:44:34.277Z,42.70
2018-06-17T12:45:34.194Z,42.70
2018-06-17T12:47:26.839Z,43.33
2018-06-17T12:48:26.753Z,43.81
2018-06-17T12:50:19.500Z,43.81
2018-06-17T12:51:19.365Z,43.79
2018-06-17T12:53:12.089Z,42.75
2018-06-17T12:54:11.974Z,43.31
2018-06-17T12:56:04.741Z,44.01
2018-06-17T12:57:04.582Z,43.72
2018-06-17T12:58:57.274Z,42.87
2018-06-17T12:59:57.173Z,43.43
2018-06-17T13:01:49.905Z,44.76
2018-06-17T13:02:49.773Z,44.27
2018-06-17T13:04:42.506Z,45.31
2018-06-17T13:05:42.374Z,45.14
2018-06-17T13:07:35.087Z,44.64
2018-06-17T13:08:34.964Z,45.12
2018-06-17T13:10:27.655Z,45.51
2018-06-17T13:11:27.553Z,45.60
2018-06-17T13:13:20.289Z,44.73
2018-06-17T13:14:20.179Z,44.83
2018-06-17T13:16:12.858Z,45.68
2018-06-17T13:17:12.769Z,46.37
2018-06-17T13:19:05.491Z,45.53
2018-06-17T13:20:05.360Z,45.12
2018-06-17T13:21:58.053Z,45.53
2018-06-17T13:22:57.959Z,44.95
2018-06-17T13:24:50.664Z,44.83
2018-06-17T13:25:50.547Z,45.51
2018-06-17T13:27:43.238Z,45.58
2018-06-17T13:28:43.148Z,46.55
2018-06-17T13:30:35.866Z,46.83
2018-06-17T13:31:35.734Z,46.86
2018-06-17T13:33:28.428Z,45.24
2018-06-17T13:34:28.348Z,45.14
2018-06-17T13:36:21.196Z,44.49
2018-06-17T13:37:20.929Z,44.10
2018-06-17T13:39:13.619Z,44.90
2018-06-17T13:40:13.520Z,43.16
2018-06-17T13:42:06.293Z,43.84
2018-06-17T13:43:06.168Z,44.78
2018-06-17T13:44:58.871Z,43.35
2018-06-17T13:45:58.786Z,42.79
2018-06-17T13:47:51.479Z,43.95
2018-06-17T13:48:51.362Z,42.02
2018-06-17T13:50:44.053Z,41.91
2018-06-17T13:51:43.975Z,41.78
2018-06-17T13:53:36.677Z,43.33
2018-06-17T13:54:36.545Z,43.81
2018-06-17T13:56:29.256Z,42.31
2018-06-17T13:57:29.219Z,41.93
2018-06-17T13:59:21.861Z,41.23
2018-06-17T14:00:21.739Z,41.40
2018-06-17T14:02:14.443Z,42.48
2018-06-17T14:03:14.343Z,42.10
2018-06-17T14:05:07.050Z,42.77
2018-06-17T14:06:06.935Z,43.35
2018-06-17T14:07:59.637Z,42.29
2018-06-17T14:08:59.538Z,42.21
2018-06-17T14:10:52.309Z,41.44
2018-06-17T14:11:52.181Z,41.42
2018-06-17T14:13:44.874Z,42.75
2018-06-17T14:14:44.772Z,43.81
2018-06-17T14:16:37.490Z,43.62
2018-06-17T14:17:37.371Z,44.39
2018-06-17T14:19:30.057Z,43.81
2018-06-17T14:20:29.965Z,43.74
2018-06-17T14:22:22.707Z,43.35
2018-06-17T14:23:22.552Z,43.45
2018-06-17T14:25:15.239Z,42.70
2018-06-17T14:26:15.147Z,42.33
2018-06-17T14:28:07.865Z,41.46
2018-06-17T14:29:07.743Z,40.78
2018-06-17T14:31:00.442Z,41.17
2018-06-17T14:32:00.337Z,41.56
2018-06-17T14:33:53.062Z,40.98
2018-06-17T14:34:52.934Z,41.94
2018-06-17T14:36:45.623Z,42.24
2018-06-17T14:37:45.532Z,41.66
2018-06-17T14:39:38.233Z,41.58
2018-06-17T14:40:38.120Z,41.19
2018-06-17T14:42:30.805Z,40.83
2018-06-17T14:43:30.709Z,40.42
2018-06-17T14:45:23.419Z,42.77
2018-06-17T14:46:23.309Z,43.26
2018-06-17T14:48:15.990Z,44.03
2018-06-17T14:49:15.921Z,43.93
2018-06-17T14:51:08.605Z,42.77
2018-06-17T14:52:08.491Z,43.91
2018-06-17T14:54:01.207Z,43.52
2018-06-17T14:55:01.100Z,43.43
2018-06-17T14:56:53.816Z,43.84
2018-06-17T14:57:53.707Z,43.43
2018-06-17T14:59:46.418Z,45.34
2018-06-17T15:00:46.295Z,45.43
2018-06-17T15:02:38.995Z,45.53
2018-06-17T15:03:38.907Z,46.13
2018-06-17T15:05:31.620Z,44.46
2018-06-17T15:06:31.493Z,44.56
2018-06-17T15:08:24.179Z,44.97
2018-06-17T15:09:24.151Z,44.87
2018-06-17T15:11:16.796Z,43.35
2018-06-17T15:12:16.674Z,44.03
2018-06-17T15:14:09.400Z,43.64
2018-06-17T15:15:09.281Z,43.62
2018-06-17T15:17:02.124Z,44.76
2018-06-17T15:18:01.865Z,45.04
2018-06-17T15:19:54.558Z,43.79
2018-06-17T15:20:54.487Z,43.89
2018-06-17T15:22:47.185Z,44.59
2018-06-17T15:23:47.058Z,44.20
2018-06-17T15:25:39.740Z,43.52
2018-06-17T15:26:39.640Z,44.01
2018-06-17T15:28:32.364Z,44.32
2018-06-17T15:29:32.242Z,43.84
2018-06-17T15:31:24.929Z,43.93
2018-06-17T15:32:24.834Z,44.12
2018-06-17T15:34:17.539Z,43.74
2018-06-17T15:35:17.429Z,43.54
2018-06-17T15:37:10.114Z,44.78
2018-06-17T15:38:10.015Z,44.78
2018-06-17T15:40:02.748Z,44.78
2018-06-17T15:41:02.616Z,44.87
2018-06-17T15:42:55.308Z,45.17
2018-06-17T15:43:55.208Z,45.17
2018-06-17T15:45:48.422Z,44.78
2018-06-17T15:46:48.305Z,45.09
2018-06-17T15:48:40.988Z,44.20
2018-06-17T15:49:40.892Z,44.39
2018-06-17T15:51:33.623Z,44.10
2018-06-17T15:52:33.494Z,44.78
2018-06-17T15:54:26.187Z,44.76
2018-06-17T15:55:26.094Z,44.85
2018-06-17T15:57:18.821Z,44.83
2018-06-17T15:58:18.746Z,45.53
2018-06-17T16:00:11.379Z,45.26
2018-06-17T16:01:11.350Z,44.29
2018-06-17T16:03:03.990Z,44.78
2018-06-17T16:04:03.918Z,45.55
2018-06-17T16:05:56.600Z,43.91
2018-06-17T16:06:56.492Z,44.80
2018-06-17T16:08:49.236Z,45.07
2018-06-17T16:09:49.111Z,45.36
2018-06-17T16:11:41.794Z,45.17
2018-06-17T16:12:41.695Z,44.68
2018-06-17T16:14:34.432Z,46.40
2018-06-17T16:15:34.310Z,46.30
2018-06-17T16:17:26.993Z,46.40
2018-06-17T16:18:26.898Z,46.69
2018-06-17T16:20:19.759Z,46.49
2018-06-17T16:21:19.488Z,45.53
2018-06-17T16:23:12.224Z,45.14
2018-06-17T16:24:12.073Z,45.34
2018-06-17T16:26:04.793Z,45.43
2018-06-17T16:27:04.677Z,45.14
2018-06-17T16:28:57.369Z,45.43
2018-06-17T16:29:57.260Z,45.55
2018-06-17T16:31:49.974Z,45.26
2018-06-17T16:32:49.856Z,45.84
2018-06-17T16:34:43.559Z,45.55
2018-06-17T16:35:43.442Z,45.43
2018-06-17T16:37:36.168Z,46.88
2018-06-17T16:38:36.042Z,46.59
2018-06-17T16:40:28.745Z,45.53
2018-06-17T16:41:28.651Z,45.65
2018-06-17T16:43:21.361Z,46.11
2018-06-17T16:44:21.245Z,46.86
2018-06-17T16:46:13.939Z,46.47
2018-06-17T16:47:13.837Z,46.76
2018-06-17T16:49:06.548Z,46.66
2018-06-17T16:50:06.417Z,46.93
2018-06-17T16:51:59.129Z,47.60
2018-06-17T16:52:59.029Z,48.18
2018-06-17T16:54:51.745Z,48.18
2018-06-17T16:55:51.614Z,48.66
2018-06-17T16:57:44.321Z,48.66
2018-06-17T16:58:44.226Z,48.47
2018-06-17T17:00:36.914Z,48.76
2018-06-17T17:01:36.789Z,48.66
2018-06-17T17:03:29.484Z,49.05
2018-06-17T17:04:29.385Z,49.34
2018-06-17T17:06:22.097Z,49.24
2018-06-17T17:07:21.983Z,49.43
2018-06-17T17:09:14.664Z,48.76
2018-06-17T17:10:14.557Z,48.66
2018-06-17T17:12:07.270Z,48.47
2018-06-17T17:13:07.158Z,48.49
2018-06-17T17:14:59.834Z,48.59
2018-06-17T17:15:59.731Z,48.61
2018-06-17T17:17:52.441Z,47.45
2018-06-17T17:18:52.320Z,48.13
2018-06-17T17:20:45.038Z,47.94
2018-06-17T17:21:44.934Z,47.55
2018-06-17T17:23:37.670Z,48.33
2018-06-17T17:24:37.538Z,47.94
2018-06-17T17:26:30.225Z,48.42
2018-06-17T17:27:30.131Z,48.40
2018-06-17T17:29:22.833Z,49.55
2018-06-17T17:30:22.718Z,49.75
2018-06-17T17:32:15.403Z,50.42
2018-06-17T17:33:15.305Z,52.25
2018-06-17T17:35:08.018Z,49.15
2018-06-17T17:36:07.887Z,49.53
2018-06-17T17:38:00.584Z,50.49
2018-06-17T17:39:00.470Z,50.47
2018-06-17T17:40:53.183Z,50.69
2018-06-17T17:41:53.055Z,50.69
2018-06-17T17:43:45.759Z,50.49
2018-06-17T17:44:45.654Z,50.40
2018-06-17T17:46:38.360Z,49.99
2018-06-17T17:47:38.251Z,51.14
2018-06-17T17:49:30.923Z,50.88
2018-06-17T17:50:30.840Z,50.40
2018-06-17T17:52:23.539Z,50.69
2018-06-17T17:53:23.427Z,50.78
2018-06-17T17:55:16.101Z,51.77
2018-06-17T17:56:16.002Z,50.32
2018-06-17T17:58:08.706Z,50.52
2018-06-17T17:59:08.586Z,49.15
2018-06-17T18:01:01.276Z,50.40
2018-06-17T18:02:01.170Z,51.75
2018-06-17T18:03:53.877Z,49.82
2018-06-17T18:04:53.754Z,50.59
2018-06-17T18:06:46.440Z,50.21
2018-06-17T18:07:46.344Z,50.88
2018-06-17T18:09:39.054Z,51.75
2018-06-17T18:10:38.925Z,50.21
2018-06-17T18:12:32.131Z,50.78
2018-06-17T18:13:32.115Z,50.85
2018-06-17T18:15:24.736Z,51.34
2018-06-17T18:16:24.619Z,51.24
2018-06-17T18:18:17.460Z,51.60
2018-06-17T18:19:17.219Z,52.30
2018-06-17T18:21:09.965Z,51.79
2018-06-17T18:22:09.811Z,51.89
2018-06-17T18:24:02.507Z,52.47
2018-06-17T18:25:02.408Z,52.47
2018-06-17T18:26:55.132Z,53.43
2018-06-17T18:27:54.998Z,53.05
2018-06-17T18:29:47.691Z,53.23
2018-06-17T18:30:47.585Z,52.85
2018-06-17T18:32:40.318Z,52.66
2018-06-17T18:33:40.196Z,53.23
2018-06-17T18:35:32.883Z,52.75
2018-06-17T18:36:32.785Z,52.95
2018-06-17T18:38:25.476Z,53.14
2018-06-17T18:39:25.364Z,53.33
2018-06-17T18:41:18.198Z,53.50
2018-06-17T18:42:17.947Z,53.21
2018-06-17T18:44:10.659Z,54.08
2018-06-17T18:45:10.523Z,53.78
2018-06-17T18:47:03.216Z,54.94
2018-06-17T18:48:03.115Z,55.04
2018-06-17T18:49:55.817Z,54.85
2018-06-17T18:50:55.700Z,54.91
2018-06-17T18:52:48.379Z,55.43
2018-06-17T18:53:48.280Z,55.43
2018-06-17T18:55:41.008Z,54.75
2018-06-17T18:56:40.888Z,55.13
2018-06-17T18:58:33.572Z,55.78
2018-06-17T18:59:33.470Z,56.26
2018-06-17T19:01:26.209Z,55.68
2018-06-17T19:02:26.128Z,56.26
2018-06-17T19:04:19.240Z,55.88
2018-06-17T19:05:19.142Z,56.07
2018-06-17T19:07:11.906Z,57.03
2018-06-17T19:08:12.200Z,56.93
2018-06-17T19:10:04.461Z,57.68
2018-06-17T19:11:04.356Z,58.45
2018-06-17T19:12:57.093Z,59.38
2018-06-17T19:13:56.969Z,59.79
2018-06-17T19:15:49.653Z,59.76
2018-06-17T19:16:49.554Z,60.63
2018-06-17T19:18:42.254Z,62.26
2018-06-17T19:19:42.137Z,63.12
2018-06-17T19:21:34.828Z,63.28
2018-06-17T19:22:34.780Z,63.48
2018-06-17T19:24:27.433Z,65.01
2018-06-17T19:25:27.317Z,65.40
2018-06-17T19:27:20.037Z,66.36
2018-06-17T19:28:19.915Z,66.64
2018-06-17T19:30:12.693Z,67.32
2018-06-17T19:31:12.542Z,67.51
2018-06-17T19:33:05.717Z,68.63
2018-06-17T19:34:05.620Z,69.20
2018-06-17T19:35:58.327Z,69.78
2018-06-17T19:36:58.192Z,70.07
2018-06-17T19:38:50.874Z,70.42
2018-06-17T19:39:50.777Z,70.61
2018-06-17T19:41:43.481Z,70.70
2018-06-17T19:42:43.360Z,70.64
2018-06-17T19:44:36.029Z,70.36
2018-06-17T19:45:35.994Z,70.26
2018-06-17T19:47:28.633Z,70.90
2018-06-17T19:48:28.510Z,70.80
2018-06-17T19:50:21.187Z,71.09
2018-06-17T19:51:21.082Z,71.47
2018-06-17T19:53:13.786Z,71.47
2018-06-17T19:54:14.201Z,72.14
2018-06-17T19:56:06.344Z,72.81
2018-06-17T19:57:06.242Z,72.81
2018-06-17T19:58:58.938Z,72.72
2018-06-17T19:59:58.820Z,73.10
2018-06-17T20:01:51.987Z,73.39
2018-06-17T20:02:51.897Z,73.10
2018-06-17T20:04:44.584Z,73.10
2018-06-17T20:05:44.464Z,73.10
2018-06-17T20:07:37.152Z,72.63
2018-06-17T20:08:37.041Z,72.63
2018-06-17T20:10:29.745Z,72.91
2018-06-17T20:11:29.611Z,72.24
2018-06-17T20:13:22.329Z,72.72
2018-06-17T20:14:22.204Z,72.24
2018-06-17T20:16:14.887Z,72.05
2018-06-17T20:17:14.788Z,71.76
2018-06-17T20:19:07.485Z,72.05
2018-06-17T20:20:07.365Z,72.53
2018-06-17T20:22:00.063Z,72.63
2018-06-17T20:22:59.948Z,72.81
2018-06-17T20:24:52.646Z,72.24
2018-06-17T20:25:52.524Z,71.95
2018-06-17T20:27:45.207Z,72.14
2018-06-17T20:28:45.105Z,72.68
2018-06-17T20:30:37.803Z,72.97
2018-06-17T20:31:37.687Z,73.45
2018-06-17T20:33:30.424Z,73.55
2018-06-17T20:34:30.343Z,73.45
2018-06-17T20:36:23.025Z,72.63
2018-06-17T20:37:22.903Z,72.33
2018-06-17T20:39:15.616Z,71.47
2018-06-17T20:40:15.514Z,72.05
2018-06-17T20:42:08.211Z,71.53
2018-06-17T20:43:08.093Z,71.63
2018-06-17T20:45:01.448Z,71.92
2018-06-17T20:46:01.320Z,71.57
2018-06-17T20:47:54.021Z,71.95
2018-06-17T20:48:53.900Z,71.47
2018-06-17T20:50:46.617Z,71.19
2018-06-17T20:51:46.493Z,70.90
2018-06-17T20:53:39.658Z,70.99
2018-06-17T20:54:39.104Z,70.80
2018-06-17T20:56:31.806Z,70.23
2018-06-17T20:57:31.676Z,70.23
2018-06-17T20:59:24.361Z,70.51
2018-06-17T21:00:24.261Z,70.23
2018-06-17T21:02:16.996Z,70.51
2018-06-17T21:03:16.855Z,70.32
2018-06-17T21:05:09.542Z,70.48
2018-06-17T21:06:09.435Z,71.15
2018-06-17T21:08:02.134Z,70.57
2018-06-17T21:09:02.010Z,70.67
2018-06-17T21:10:54.708Z,70.86
2018-06-17T21:11:54.590Z,70.57
2018-06-17T21:13:47.317Z,70.67
2018-06-17T21:14:47.179Z,70.09
2018-06-17T21:16:39.860Z,70.76
2018-06-17T21:17:39.754Z,70.57
2018-06-17T21:19:32.465Z,70.61
2018-06-17T21:20:32.335Z,70.13
2018-06-17T21:22:25.161Z,70.42
2018-06-17T21:23:24.915Z,70.42
2018-06-17T21:25:17.634Z,70.32
2018-06-17T21:26:17.492Z,70.70
2018-06-17T21:28:10.172Z,70.51
2018-06-17T21:29:10.164Z,70.42
2018-06-17T21:31:02.769Z,70.03
2018-06-17T21:32:02.638Z,70.03
2018-06-17T21:33:55.316Z,70.51
2018-06-17T21:34:55.225Z,70.13
2018-06-17T21:36:47.912Z,70.42
2018-06-17T21:37:47.791Z,70.61
2018-06-17T21:39:40.474Z,70.80
2018-06-17T21:40:40.366Z,70.99
2018-06-17T21:42:33.078Z,70.99
2018-06-17T21:43:32.949Z,70.90
2018-06-17T21:45:25.622Z,71.09
2018-06-17T21:46:25.614Z,71.09
2018-06-17T21:48:18.214Z,71.57
2018-06-17T21:49:18.113Z,71.57
2018-06-17T21:51:10.788Z,71.66
2018-06-17T21:52:10.680Z,71.47
2018-06-17T21:54:03.386Z,71.19
2018-06-17T21:55:03.261Z,70.70
2018-06-17T21:56:55.967Z,71.28
2018-06-17T21:57:55.851Z,70.70
2018-06-17T21:59:48.563Z,71.09
